createdAt,value
2022-08-21T00:00:58.463Z,100936.84
2022-08-21T00:03:26.850Z,100938.66
2022-08-21T00:05:56.069Z,100935.13
2022-08-21T00:08:23.955Z,100932.44
2022-08-21T00:10:52.562Z,100929.81
2022-08-21T00:13:21.529Z,100926.25
2022-08-21T00:15:50.469Z,100934.34
2022-08-21T00:18:18.767Z,100927.16
2022-08-21T00:20:47.379Z,100929.88
2022-08-21T00:23:16.858Z,100930.84
2022-08-21T00:25:46.439Z,100932.63
2022-08-21T00:28:15.176Z,100940.75
2022-08-21T00:30:44.647Z,100933.66
2022-08-21T00:33:13.683Z,100934.56
2022-08-21T00:35:43.937Z,100934.59
2022-08-21T00:38:12.155Z,100926.53
2022-08-21T00:40:45.683Z,100927.53
2022-08-21T00:43:17.319Z,100926.69
2022-08-21T00:45:46.147Z,100925.78
2022-08-21T00:48:14.204Z,100928.47
2022-08-21T00:50:48.614Z,100923.13
2022-08-21T00:53:16.991Z,100923.13
2022-08-21T00:55:47.535Z,100921.41
2022-08-21T00:58:17.434Z,100928.47
2022-08-21T01:00:49.924Z,100922.25
2022-08-21T01:03:23.856Z,100913.31
2022-08-21T01:05:52.583Z,100911.53
2022-08-21T01:08:22.749Z,100913.41
2022-08-21T01:10:54.769Z,100913.41
2022-08-21T01:13:28.504Z,100907.97
2022-08-21T01:16:00.373Z,100917.84
2022-08-21T01:18:29.295Z,100913.41
2022-08-21T01:21:08.049Z,100915.22
2022-08-21T01:23:37.034Z,100919.69
2022-08-21T01:26:05.815Z,100916.13
2022-08-21T01:28:38.873Z,100917.94
2022-08-21T01:31:10.140Z,100917.00
2022-08-21T01:33:38.852Z,100922.38
2022-08-21T01:36:08.947Z,100921.50
2022-08-21T01:38:36.812Z,100922.38
2022-08-21T01:41:04.643Z,100910.75
2022-08-21T01:43:39.301Z,100912.56
2022-08-21T01:46:08.017Z,100914.31
2022-08-21T01:48:36.327Z,100908.91
2022-08-21T01:51:04.868Z,100913.34
2022-08-21T01:53:36.693Z,100910.59
2022-08-21T01:56:11.909Z,100908.81
2022-08-21T01:58:41.149Z,100907.91
2022-08-21T02:01:09.141Z,100914.13
2022-08-21T02:03:37.621Z,100907.00
2022-08-21T02:06:06.735Z,100910.59
2022-08-21T02:08:36.496Z,100907.91
2022-08-21T02:11:04.470Z,100901.69
2022-08-21T02:13:32.354Z,100899.09
2022-08-21T02:16:00.248Z,100908.03
2022-08-21T02:18:28.101Z,100907.16
2022-08-21T02:20:56.752Z,100901.78
2022-08-21T02:23:27.234Z,100909.00
2022-08-21T02:25:57.586Z,100908.09
2022-08-21T02:28:25.466Z,100906.38
2022-08-21T02:30:56.831Z,100909.09
2022-08-21T02:33:25.706Z,100904.63
2022-08-21T02:35:54.364Z,100899.31
2022-08-21T02:38:25.847Z,100893.97
2022-08-21T02:40:55.702Z,100897.66
2022-08-21T02:43:27.003Z,100890.53
2022-08-21T02:45:56.238Z,100895.09
2022-08-21T02:48:28.057Z,100892.47
2022-08-21T02:50:58.880Z,100892.59
2022-08-21T02:53:28.000Z,100889.09
2022-08-21T02:55:56.830Z,100895.41
2022-08-21T02:58:29.256Z,100895.56
2022-08-21T03:00:58.046Z,100884.03
2022-08-21T03:03:27.794Z,100885.00
2022-08-21T03:05:56.404Z,100887.78
2022-08-21T03:08:27.386Z,100891.44
2022-08-21T03:10:56.883Z,100894.22
2022-08-21T03:13:26.078Z,100893.47
2022-08-21T03:15:54.074Z,100889.06
2022-08-21T03:18:22.020Z,100895.44
2022-08-21T03:20:50.092Z,100896.41
2022-08-21T03:23:19.597Z,100896.50
2022-08-21T03:25:48.587Z,100900.19
2022-08-21T03:28:19.130Z,100900.31
2022-08-21T03:30:51.043Z,100909.31
2022-08-21T03:33:20.432Z,100899.66
2022-08-21T03:35:54.853Z,100906.03
2022-08-21T03:38:26.487Z,100912.38
2022-08-21T03:40:54.833Z,100913.41
2022-08-21T03:43:22.914Z,100921.53
2022-08-21T03:45:52.772Z,100910.94
2022-08-21T03:48:21.242Z,100910.13
2022-08-21T03:50:50.454Z,100906.63
2022-08-21T03:53:18.890Z,100908.53
2022-08-21T03:55:47.805Z,100905.94
2022-08-21T03:58:17.585Z,100912.28
2022-08-21T04:00:46.781Z,100907.00
2022-08-21T04:03:16.589Z,100908.03
2022-08-21T04:05:46.608Z,100900.06
2022-08-21T04:08:15.853Z,100897.47
2022-08-21T04:10:45.819Z,100905.56
2022-08-21T04:13:15.655Z,100904.78
2022-08-21T04:15:44.007Z,100909.31
2022-08-21T04:18:12.115Z,100904.03
2022-08-21T04:20:45.340Z,100907.69
2022-08-21T04:23:23.909Z,100919.34
2022-08-21T04:25:53.294Z,100920.34
2022-08-21T04:28:21.227Z,100917.72
2022-08-21T04:30:51.587Z,100919.56
2022-08-21T04:33:19.742Z,100917.81
2022-08-21T04:35:50.014Z,100920.56
2022-08-21T04:38:18.462Z,100927.81
2022-08-21T04:40:46.629Z,100928.72
2022-08-21T04:43:14.567Z,100927.84
2022-08-21T04:45:44.696Z,100930.56
2022-08-21T04:48:15.208Z,100935.06
2022-08-21T04:50:48.591Z,100932.44
2022-08-21T04:53:21.923Z,100932.50
2022-08-21T04:55:50.768Z,100933.41
2022-08-21T04:58:21.050Z,100938.81
2022-08-21T05:00:50.034Z,100943.25
2022-08-21T05:03:19.685Z,100949.56
2022-08-21T05:05:47.800Z,100941.56
2022-08-21T05:08:20.738Z,100948.72
2022-08-21T05:10:48.891Z,100955.84
2022-08-21T05:13:17.835Z,100950.50
2022-08-21T05:15:45.994Z,100960.34
2022-08-21T05:18:14.022Z,100954.19
2022-08-21T05:20:42.071Z,100957.75
2022-08-21T05:23:11.125Z,100957.78
2022-08-21T05:25:41.126Z,100959.63
2022-08-21T05:28:09.656Z,100962.31
2022-08-21T05:30:38.290Z,100968.59
2022-08-21T05:33:08.877Z,100961.44
2022-08-21T05:35:37.063Z,100966.75
2022-08-21T05:38:05.749Z,100965.78
2022-08-21T05:40:44.266Z,100964.84
2022-08-21T05:43:12.149Z,100977.25
2022-08-21T05:45:41.468Z,100976.28
2022-08-21T05:48:13.316Z,100968.19
2022-08-21T05:50:41.767Z,100973.47
2022-08-21T05:53:10.700Z,100978.72
2022-08-21T05:55:44.876Z,100967.66
2022-08-21T05:58:15.258Z,100970.91
2022-08-21T06:00:43.232Z,100972.50
2022-08-21T06:03:14.931Z,100973.13
2022-08-21T06:05:42.773Z,100968.44
2022-08-21T06:08:10.974Z,100968.25
2022-08-21T06:10:39.248Z,100962.69
2022-08-21T06:13:07.244Z,100960.72
2022-08-21T06:15:36.829Z,100965.03
2022-08-21T06:18:05.238Z,100964.03
2022-08-21T06:20:33.791Z,100965.66
2022-08-21T06:23:02.233Z,100963.81
2022-08-21T06:25:30.543Z,100973.44
2022-08-21T06:28:03.385Z,100966.16
2022-08-21T06:30:31.404Z,100966.13
2022-08-21T06:33:01.102Z,100966.13
2022-08-21T06:35:30.675Z,100976.84
2022-08-21T06:37:59.262Z,100970.53
2022-08-21T06:40:27.255Z,100964.09
2022-08-21T06:42:58.555Z,100972.84
2022-08-21T06:45:28.228Z,100976.28
2022-08-21T06:48:01.099Z,100971.69
2022-08-21T06:50:29.429Z,100969.78
2022-08-21T06:53:04.837Z,100974.19
2022-08-21T06:55:33.168Z,100974.94
2022-08-21T06:58:01.418Z,100976.63
2022-08-21T07:00:29.712Z,100977.44
2022-08-21T07:03:01.819Z,100978.28
2022-08-21T07:05:32.049Z,100973.63
2022-08-21T07:08:00.624Z,100970.78
2022-08-21T07:10:28.830Z,100962.47
2022-08-21T07:13:01.112Z,100961.38
2022-08-21T07:15:31.100Z,100969.22
2022-08-21T07:18:00.015Z,100970.94
2022-08-21T07:20:30.494Z,100960.09
2022-08-21T07:22:59.957Z,100965.34
2022-08-21T07:25:27.997Z,100952.63
2022-08-21T07:27:56.241Z,100952.50
2022-08-21T07:30:24.991Z,100952.38
2022-08-21T07:32:53.577Z,100952.22
2022-08-21T07:35:24.561Z,100948.47
2022-08-21T07:37:53.733Z,100947.47
2022-08-21T07:40:22.265Z,100941.97
2022-08-21T07:42:52.727Z,100944.56
2022-08-21T07:45:22.501Z,100943.50
2022-08-21T07:47:54.262Z,100946.94
2022-08-21T07:50:25.222Z,100949.38
2022-08-21T07:52:54.777Z,100948.34
2022-08-21T07:55:24.613Z,100948.97
2022-08-21T07:57:52.549Z,100944.28
2022-08-21T08:00:22.625Z,100952.09
2022-08-21T08:02:52.627Z,100950.13
2022-08-21T08:05:22.948Z,100952.50
2022-08-21T08:07:50.946Z,100944.09
2022-08-21T08:10:20.874Z,100949.28
2022-08-21T08:12:48.879Z,100946.25
2022-08-21T08:15:23.375Z,100940.69
2022-08-21T08:17:51.321Z,100944.03
2022-08-21T08:20:21.120Z,100935.56
2022-08-21T08:22:50.146Z,100936.84
2022-08-21T08:25:21.300Z,100940.78
2022-08-21T08:27:49.189Z,100933.13
2022-08-21T08:30:19.190Z,100931.84
2022-08-21T08:32:48.781Z,100936.91
2022-08-21T08:35:17.030Z,100925.88
2022-08-21T08:37:47.905Z,100920.88
2022-08-21T08:40:39.386Z,100926.53
2022-08-21T08:43:14.531Z,100916.25
2022-08-21T08:45:47.791Z,100925.75
2022-08-21T08:48:38.729Z,100925.13
2022-08-21T08:51:10.838Z,100921.91
2022-08-21T08:53:49.336Z,100925.97
2022-08-21T08:56:46.261Z,100918.25
2022-08-21T08:59:29.248Z,100912.25
2022-08-21T09:02:12.383Z,100915.94
2022-08-21T09:05:19.006Z,100903.53
2022-08-21T09:08:19.546Z,100905.59
2022-08-21T09:11:09.449Z,100909.56
2022-08-21T09:14:00.035Z,100912.47
2022-08-21T09:16:39.666Z,100910.09
2022-08-21T09:19:24.909Z,100913.97
2022-08-21T09:22:12.936Z,100911.41
2022-08-21T09:24:52.097Z,100918.56
2022-08-21T09:27:27.787Z,100920.63
2022-08-21T09:30:10.986Z,100910.16
2022-08-21T09:32:45.162Z,100905.91
2022-08-21T09:35:15.808Z,100904.53
2022-08-21T09:37:56.751Z,100906.06
2022-08-21T09:40:43.706Z,100906.22
2022-08-21T09:43:23.350Z,100902.06
2022-08-21T09:46:10.898Z,100906.81
2022-08-21T09:48:54.945Z,100900.75
2022-08-21T09:51:26.107Z,100910.59
2022-08-21T09:53:58.977Z,100900.06
2022-08-21T09:56:51.011Z,100902.75
2022-08-21T09:59:26.807Z,100891.13
2022-08-21T10:01:59.874Z,100897.78
2022-08-21T10:04:46.917Z,100888.16
2022-08-21T10:07:16.718Z,100893.75
2022-08-21T10:09:45.330Z,100887.81
2022-08-21T10:12:18.762Z,100890.00
2022-08-21T10:14:56.518Z,100893.69
2022-08-21T10:17:39.134Z,100885.50
2022-08-21T10:20:33.508Z,100887.78
2022-08-21T10:23:11.390Z,100886.38
2022-08-21T10:26:13.603Z,100887.13
2022-08-21T10:28:55.815Z,100880.69
2022-08-21T10:31:48.695Z,100878.53
2022-08-21T10:34:37.887Z,100880.41
2022-08-21T10:37:26.331Z,100880.59
2022-08-21T10:40:13.890Z,100880.44
2022-08-21T10:42:54.426Z,100876.50
2022-08-21T10:45:33.746Z,100886.25
2022-08-21T10:48:07.257Z,100876.53
2022-08-21T10:50:42.261Z,100880.06
2022-08-21T10:53:33.567Z,100874.81
2022-08-21T10:56:11.116Z,100874.72
2022-08-21T10:59:24.927Z,100875.09
2022-08-21T11:01:59.084Z,100868.78
2022-08-21T11:04:47.009Z,100858.88
2022-08-21T11:07:27.378Z,100856.66
2022-08-21T11:10:04.115Z,100869.19
2022-08-21T11:12:43.516Z,100872.38
2022-08-21T11:15:29.127Z,100873.66
2022-08-21T11:18:06.514Z,100864.16
2022-08-21T11:20:41.197Z,100855.91
2022-08-21T11:23:16.571Z,100861.34
2022-08-21T11:25:49.435Z,100863.06
2022-08-21T11:28:22.743Z,100862.25
2022-08-21T11:30:59.961Z,100866.47
2022-08-21T11:33:42.833Z,100871.31
2022-08-21T11:36:19.400Z,100859.78
2022-08-21T11:38:57.758Z,100844.13
2022-08-21T11:41:31.778Z,100856.69
2022-08-21T11:44:12.339Z,100845.97
2022-08-21T11:46:49.714Z,100853.81
2022-08-21T11:49:44.066Z,100843.69
2022-08-21T11:52:20.987Z,100844.03
2022-08-21T11:54:57.112Z,100843.38
2022-08-21T11:57:29.042Z,100839.53
2022-08-21T12:00:02.091Z,100845.97
2022-08-21T12:02:44.343Z,100832.22
2022-08-21T12:05:25.787Z,100835.16
2022-08-21T12:08:05.398Z,100831.03
2022-08-21T12:10:39.505Z,100825.56
2022-08-21T12:13:14.639Z,100829.47
2022-08-21T12:15:45.284Z,100837.28
2022-08-21T12:18:24.699Z,100831.16
2022-08-21T12:21:06.132Z,100821.13
2022-08-21T12:23:45.040Z,100831.66
2022-08-21T12:26:22.466Z,100828.09
2022-08-21T12:28:50.431Z,100827.44
2022-08-21T12:31:24.881Z,100825.31
2022-08-21T12:33:56.776Z,100816.78
2022-08-21T12:36:38.833Z,100819.16
2022-08-21T12:39:14.509Z,100805.81
2022-08-21T12:41:50.979Z,100817.88
2022-08-21T12:44:25.272Z,100813.88
2022-08-21T12:46:57.855Z,100820.22
2022-08-21T12:49:32.827Z,100822.13
2022-08-21T12:52:05.277Z,100812.69
2022-08-21T12:54:41.237Z,100810.56
2022-08-21T12:57:19.003Z,100813.56
2022-08-21T12:59:46.857Z,100805.13
2022-08-21T13:02:21.086Z,100803.16
2022-08-21T13:04:51.138Z,100812.25
2022-08-21T13:07:27.482Z,100811.59
2022-08-21T13:10:00.877Z,100816.63
2022-08-21T13:12:32.765Z,100812.00
2022-08-21T13:15:04.299Z,100804.28
2022-08-21T13:17:38.959Z,100813.44
2022-08-21T13:20:12.063Z,100811.41
2022-08-21T13:22:44.740Z,100816.16
2022-08-21T13:25:16.274Z,100805.22
2022-08-21T13:28:07.361Z,100805.09
2022-08-21T13:30:37.178Z,100798.94
2022-08-21T13:33:12.913Z,100796.22
2022-08-21T13:35:50.047Z,100794.84
2022-08-21T13:38:19.200Z,100792.94
2022-08-21T13:40:51.770Z,100791.88
2022-08-21T13:43:24.379Z,100801.25
2022-08-21T13:45:54.728Z,100787.97
2022-08-21T13:48:25.712Z,100790.41
2022-08-21T13:50:54.705Z,100780.22
2022-08-21T13:53:25.227Z,100781.81
2022-08-21T13:55:55.388Z,100782.31
2022-08-21T13:58:29.713Z,100787.66
2022-08-21T14:00:59.985Z,100781.09
2022-08-21T14:03:36.293Z,100786.75
2022-08-21T14:06:05.180Z,100777.50
2022-08-21T14:08:37.518Z,100785.75
2022-08-21T14:11:07.222Z,100786.06
2022-08-21T14:13:41.615Z,100788.50
2022-08-21T14:16:19.190Z,100789.94
2022-08-21T14:18:50.392Z,100782.84
2022-08-21T14:21:32.122Z,100782.47
2022-08-21T14:24:11.276Z,100787.06
2022-08-21T14:26:47.959Z,100787.13
2022-08-21T14:29:19.646Z,100776.88
2022-08-21T14:31:53.550Z,100783.84
2022-08-21T14:34:22.941Z,100784.44
2022-08-21T14:36:51.946Z,100766.69
2022-08-21T14:39:20.160Z,100779.38
2022-08-21T14:41:49.084Z,100778.78
2022-08-21T14:44:20.471Z,100765.91
2022-08-21T14:46:56.251Z,100767.41
2022-08-21T14:49:28.471Z,100759.22
2022-08-21T14:51:58.475Z,100760.28
2022-08-21T14:54:31.025Z,100756.56
2022-08-21T14:57:03.204Z,100763.53
2022-08-21T14:59:34.082Z,100754.84
2022-08-21T15:02:02.662Z,100768.13
2022-08-21T15:04:30.469Z,100760.47
2022-08-21T15:06:58.323Z,100753.13
2022-08-21T15:09:26.271Z,100754.00
2022-08-21T15:11:57.228Z,100746.88
2022-08-21T15:14:27.571Z,100758.84
2022-08-21T15:16:57.310Z,100748.19
2022-08-21T15:19:25.310Z,100750.28
2022-08-21T15:21:53.459Z,100748.31
2022-08-21T15:24:21.289Z,100741.50
2022-08-21T15:26:49.741Z,100741.56
2022-08-21T15:29:20.725Z,100738.66
2022-08-21T15:31:58.399Z,100746.75
2022-08-21T15:34:28.244Z,100742.78
2022-08-21T15:36:57.133Z,100745.59
2022-08-21T15:39:30.320Z,100744.75
2022-08-21T15:41:59.678Z,100741.28
2022-08-21T15:44:31.671Z,100739.81
2022-08-21T15:47:01.278Z,100746.78
2022-08-21T15:49:29.102Z,100741.69
2022-08-21T15:51:57.082Z,100741.19
2022-08-21T15:54:24.922Z,100747.41
2022-08-21T15:56:52.946Z,100750.09
2022-08-21T15:59:23.410Z,100737.19
2022-08-21T16:01:52.402Z,100742.13
2022-08-21T16:04:25.773Z,100742.34
2022-08-21T16:06:59.250Z,100746.00
2022-08-21T16:09:30.174Z,100749.78
2022-08-21T16:11:58.240Z,100740.91
2022-08-21T16:14:26.200Z,100743.09
2022-08-21T16:16:55.118Z,100741.94
2022-08-21T16:19:24.484Z,100741.66
2022-08-21T16:21:52.443Z,100735.09
2022-08-21T16:24:20.277Z,100740.59
2022-08-21T16:26:58.140Z,100736.69
2022-08-21T16:29:31.428Z,100740.88
2022-08-21T16:31:59.277Z,100740.44
2022-08-21T16:34:28.934Z,100737.19
2022-08-21T16:36:57.025Z,100734.13
2022-08-21T16:39:24.943Z,100723.88
2022-08-21T16:41:52.858Z,100724.31
2022-08-21T16:44:22.984Z,100724.78
2022-08-21T16:46:50.957Z,100723.13
2022-08-21T16:49:18.828Z,100725.22
2022-08-21T16:51:48.775Z,100715.53
2022-08-21T16:54:16.628Z,100723.91
2022-08-21T16:56:47.579Z,100718.13
2022-08-21T16:59:17.414Z,100724.25
2022-08-21T17:01:46.100Z,100718.69
2022-08-21T17:04:14.424Z,100727.56
2022-08-21T17:06:44.015Z,100725.56
2022-08-21T17:09:13.718Z,100728.00
2022-08-21T17:11:47.660Z,100732.22
2022-08-21T17:14:19.653Z,100735.53
2022-08-21T17:16:49.891Z,100734.31
2022-08-21T17:19:18.667Z,100724.94
2022-08-21T17:21:46.893Z,100733.59
2022-08-21T17:24:16.433Z,100734.88
2022-08-21T17:26:45.699Z,100732.66
2022-08-21T17:29:16.126Z,100735.78
2022-08-21T17:31:47.137Z,100731.81
2022-08-21T17:34:15.783Z,100735.03
2022-08-21T17:36:43.657Z,100734.66
2022-08-21T17:39:13.021Z,100731.59
2022-08-21T17:41:57.628Z,100732.94
2022-08-21T17:44:26.317Z,100742.47
2022-08-21T17:46:54.229Z,100734.88
2022-08-21T17:49:22.141Z,100730.91
2022-08-21T17:51:50.164Z,100729.56
2022-08-21T17:54:18.274Z,100735.53
2022-08-21T17:56:46.352Z,100734.28
2022-08-21T17:59:15.744Z,100735.72
2022-08-21T18:01:46.816Z,100737.34
2022-08-21T18:04:16.129Z,100736.94
2022-08-21T18:06:44.686Z,100742.00
2022-08-21T18:09:14.113Z,100742.66
2022-08-21T18:11:44.062Z,100743.25
2022-08-21T18:14:12.700Z,100749.28
2022-08-21T18:16:42.621Z,100740.84
2022-08-21T18:19:16.089Z,100741.44
2022-08-21T18:21:44.550Z,100745.75
2022-08-21T18:24:12.879Z,100749.91
2022-08-21T18:26:42.906Z,100759.44
2022-08-21T18:29:13.606Z,100762.69
2022-08-21T18:31:46.072Z,100762.22
2022-08-21T18:34:23.291Z,100756.38
2022-08-21T18:36:51.594Z,100759.69
2022-08-21T18:39:35.902Z,100765.50
2022-08-21T18:42:10.102Z,100772.50
2022-08-21T18:44:38.874Z,100777.31
2022-08-21T18:47:12.261Z,100783.22
2022-08-21T18:49:40.337Z,100783.72
2022-08-21T18:52:09.940Z,100777.81
2022-08-21T18:54:39.913Z,100786.44
2022-08-21T18:57:10.932Z,100783.25
2022-08-21T18:59:40.029Z,100783.72
2022-08-21T19:02:09.306Z,100781.41
2022-08-21T19:04:44.665Z,100781.84
2022-08-21T19:07:13.858Z,100786.78
2022-08-21T19:09:42.142Z,100787.16
2022-08-21T19:12:14.764Z,100790.25
2022-08-21T19:14:42.743Z,100793.31
2022-08-21T19:17:12.974Z,100799.13
2022-08-21T19:19:40.989Z,100790.41
2022-08-21T19:22:10.863Z,100803.34
2022-08-21T19:24:39.891Z,100794.72
2022-08-21T19:27:18.838Z,100803.19
2022-08-21T19:29:46.807Z,100798.16
2022-08-21T19:32:16.046Z,100791.22
2022-08-21T19:34:46.139Z,100798.72
2022-08-21T19:37:16.367Z,100799.91
2022-08-21T19:39:50.310Z,100803.78
2022-08-21T19:45:10.749Z,100802.59
2022-08-21T19:47:43.690Z,100804.63
2022-08-21T19:52:59.782Z,100807.88
2022-08-21T19:55:27.786Z,100809.03
2022-08-21T19:57:56.698Z,100814.63
2022-08-21T20:00:24.700Z,100812.97
2022-08-21T20:02:54.142Z,100816.66
2022-08-21T20:05:22.311Z,100816.00
2022-08-21T20:07:50.323Z,100826.91
2022-08-21T20:10:18.759Z,100825.38
2022-08-21T20:12:50.807Z,100831.91
2022-08-21T20:15:22.035Z,100823.88
2022-08-21T20:17:51.786Z,100833.91
2022-08-21T20:20:22.280Z,100830.34
2022-08-21T20:22:50.229Z,100833.06
2022-08-21T20:25:21.280Z,100833.00
2022-08-21T20:27:49.618Z,100830.34
2022-08-21T20:30:22.765Z,100833.00
2022-08-21T20:32:51.078Z,100839.34
2022-08-21T20:35:19.703Z,100842.06
2022-08-21T20:37:58.780Z,100835.84
2022-08-21T20:40:32.600Z,100840.41
2022-08-21T20:43:02.568Z,100831.56
2022-08-21T20:45:33.708Z,100831.56
2022-08-21T20:48:05.266Z,100830.75
2022-08-21T20:50:37.082Z,100831.69
2022-08-21T20:53:13.585Z,100830.03
2022-08-21T20:55:48.091Z,100834.66
2022-08-21T20:58:33.157Z,100832.16
2022-08-21T21:01:06.268Z,100834.16
2022-08-21T21:03:39.243Z,100838.94
2022-08-21T21:06:14.786Z,100836.41
2022-08-21T21:08:48.924Z,100831.22
2022-08-21T21:11:22.451Z,100831.41
2022-08-21T21:13:54.611Z,100838.63
2022-08-21T21:16:27.445Z,100834.34
2022-08-21T21:19:00.700Z,100838.03
2022-08-21T21:21:38.646Z,100829.31
2022-08-21T21:24:12.203Z,100842.91
2022-08-21T21:26:48.718Z,100832.41
2022-08-21T21:29:21.326Z,100838.88
2022-08-21T21:31:49.708Z,100842.66
2022-08-21T21:34:17.571Z,100837.41
2022-08-21T21:36:56.579Z,100833.03
2022-08-21T21:39:54.206Z,100838.59
2022-08-21T21:42:31.811Z,100836.00
2022-08-21T21:45:17.193Z,100827.22
2022-08-21T21:47:57.081Z,100839.00
2022-08-21T21:50:42.653Z,100841.03
2022-08-21T21:53:23.791Z,100834.97
2022-08-21T21:56:04.489Z,100840.56
2022-08-21T21:59:08.442Z,100846.19
2022-08-21T22:01:44.970Z,100846.47
2022-08-21T22:04:20.142Z,100851.13
2022-08-21T22:06:57.086Z,100844.13
2022-08-21T22:09:39.610Z,100847.84
2022-08-21T22:12:32.862Z,100856.06
2022-08-21T22:15:01.468Z,100851.88
2022-08-21T22:17:37.761Z,100853.75
2022-08-21T22:20:15.115Z,100851.31
2022-08-21T22:22:51.331Z,100850.59
2022-08-21T22:25:23.050Z,100856.09
2022-08-21T22:27:58.974Z,100850.84
2022-08-21T22:30:41.320Z,100853.78
2022-08-21T22:33:16.298Z,100856.66
2022-08-21T22:35:51.659Z,100864.00
2022-08-21T22:38:29.038Z,100869.56
2022-08-21T22:41:17.496Z,100860.78
2022-08-21T22:43:55.662Z,100860.97
2022-08-21T22:46:31.561Z,100853.06
2022-08-21T22:49:05.204Z,100863.97
2022-08-21T22:51:38.988Z,100860.56
2022-08-21T22:54:21.666Z,100856.22
2022-08-21T22:57:01.423Z,100852.84
2022-08-21T22:59:35.012Z,100856.63
2022-08-21T23:05:01.432Z,100854.19
2022-08-21T23:07:43.722Z,100862.41
2022-08-21T23:10:21.162Z,100850.94
2022-08-21T23:12:50.803Z,100853.72
2022-08-21T23:15:23.521Z,100856.53
2022-08-21T23:18:01.831Z,100853.94
2022-08-21T23:20:39.688Z,100857.69
2022-08-21T23:23:17.808Z,100864.97
2022-08-21T23:26:01.967Z,100870.44
2022-08-21T23:28:45.832Z,100867.00
2022-08-21T23:31:27.937Z,100863.63
2022-08-21T23:34:08.028Z,100867.31
2022-08-21T23:37:03.601Z,100864.75
2022-08-21T23:39:51.490Z,100860.41
2022-08-21T23:42:32.194Z,100856.97
2022-08-21T23:45:13.596Z,100855.28
2022-08-21T23:47:54.504Z,100860.81
2022-08-21T23:50:27.584Z,100865.44
2022-08-21T23:53:09.116Z,100862.81
2022-08-21T23:55:59.634Z,100857.63
2022-08-21T23:58:37.176Z,100854.19
